Time;durP1;ratioP1;P1;durP2;ratioP2;P2;SDS_P1;SDS_P2;PMS_P1;PMS_P2;Temp;Humidity;BMP_temperature;BMP_pressure;BME280_temperature;BME280_humidity;BME280_pressure;Samples;Min_cycle;Max_cycle;Signal;HPM_P1;HPM_P2
2023/05/28 00:00:00;;;;;;;6.37;1.97;;;;;;;10.95;86.03;101705.13;5053692;28;21009;-74
2023/05/28 00:02:27;;;;;;;6.93;2.40;;;;;;;10.97;85.99;101702.94;5054041;28;20442;-74
2023/05/28 00:04:54;;;;;;;10.00;2.90;;;;;;;10.96;86.23;101698.59;5053750;28;20833;-74
2023/05/28 00:07:21;;;;;;;8.97;3.03;;;;;;;10.83;86.90;101699.97;5053491;28;20948;-73
2023/05/28 00:09:48;;;;;;;8.87;3.20;;;;;;;10.80;87.12;101692.41;5053951;28;20434;-73
2023/05/28 00:12:15;;;;;;;7.20;2.63;;;;;;;10.74;87.37;101691.59;5053031;28;20446;-73
2023/05/28 00:14:42;;;;;;;6.80;2.40;;;;;;;10.83;86.71;101687.25;5053636;28;20917;-74
2023/05/28 00:17:08;;;;;;;7.50;2.70;;;;;;;10.79;87.11;101686.16;5053805;28;20482;-73
2023/05/28 00:19:35;;;;;;;8.43;2.70;;;;;;;10.86;86.55;101684.00;5053392;28;20498;-73
2023/05/28 00:22:02;;;;;;;8.50;3.23;;;;;;;10.70;87.32;101684.28;5053456;28;20473;-73
2023/05/28 00:24:29;;;;;;;8.03;2.87;;;;;;;10.74;86.86;101682.66;5053362;28;20485;-73
2023/05/28 00:26:57;;;;;;;7.67;2.87;;;;;;;10.74;87.28;101678.06;5053615;28;20446;-73
2023/05/28 00:29:24;;;;;;;8.00;2.73;;;;;;;10.75;87.22;101676.16;5053548;28;20501;-74
2023/05/28 00:31:51;;;;;;;8.53;3.67;;;;;;;10.72;87.44;101679.44;5053229;28;20455;-73
2023/05/28 00:34:17;;;;;;;10.10;3.13;;;;;;;10.67;87.42;101679.41;5053529;28;20446;-73
2023/05/28 00:36:44;;;;;;;7.27;2.97;;;;;;;10.60;88.02;101674.31;5053439;28;20486;-73
2023/05/28 00:39:10;;;;;;;11.00;3.97;;;;;;;10.59;87.62;101673.50;5053368;28;20466;-72
2023/05/28 00:41:38;;;;;;;9.03;4.07;;;;;;;10.47;86.18;101672.16;5053364;28;20446;-73
2023/05/28 00:44:08;;;;;;;10.73;3.57;;;;;;;10.42;85.40;101662.13;5053222;28;20455;-71
2023/05/28 00:46:36;;;;;;;8.03;3.03;;;;;;;10.36;85.38;101663.25;5053135;28;20897;-74
2023/05/28 00:49:03;;;;;;;11.77;4.03;;;;;;;10.31;84.67;101658.66;5053155;28;20472;-72
2023/05/28 00:51:31;;;;;;;8.93;3.27;;;;;;;10.25;85.18;101661.63;5053274;28;20449;-72
2023/05/28 00:53:58;;;;;;;9.27;3.23;;;;;;;10.22;84.50;101657.50;5053227;28;20474;-72
2023/05/28 00:56:26;;;;;;;10.57;3.50;;;;;;;10.29;85.34;101663.50;5053168;28;20573;-71
2023/05/28 00:58:53;;;;;;;8.97;3.13;;;;;;;10.22;87.36;101662.94;5053013;28;20502;-72
2023/05/28 01:01:22;;;;;;;9.93;3.57;;;;;;;10.13;88.38;101666.47;5053132;28;20529;-72
2023/05/28 01:03:49;;;;;;;8.97;3.37;;;;;;;10.03;89.26;101659.97;5053105;28;20469;-72
2023/05/28 01:06:16;;;;;;;8.30;3.20;;;;;;;10.03;89.67;101661.88;5053102;28;20442;-72
2023/05/28 01:08:42;;;;;;;8.70;2.93;;;;;;;10.01;89.72;101656.72;5052649;28;20476;-73
2023/05/28 01:11:12;;;;;;;9.37;3.30;;;;;;;10.02;89.77;101654.84;5053048;28;20485;-72
2023/05/28 01:13:40;;;;;;;12.80;2.87;;;;;;;10.08;89.62;101656.44;5053041;28;20427;-72
2023/05/28 01:16:08;;;;;;;7.57;2.63;;;;;;;10.14;88.82;101655.38;5052883;28;20482;-72
2023/05/28 01:18:39;;;;;;;7.77;2.80;;;;;;;10.03;89.60;101659.16;5052886;28;20454;-72
2023/05/28 01:21:06;;;;;;;9.20;3.47;;;;;;;10.01;89.32;101662.16;5052676;28;20537;-73
2023/05/28 01:23:39;;;;;;;10.23;3.10;;;;;;;10.05;89.28;101660.53;5052924;28;20485;-72
2023/05/28 01:26:08;;;;;;;8.63;3.13;;;;;;;10.06;88.85;101653.22;5056603;28;20484;-72
2023/05/28 01:28:34;;;;;;;10.07;3.17;;;;;;;10.08;89.50;101659.97;5056878;28;20477;-72
2023/05/28 01:31:01;;;;;;;7.40;2.93;;;;;;;10.08;89.10;101659.16;5056955;28;20445;-72
2023/05/28 01:33:27;;;;;;;8.13;3.07;;;;;;;9.98;89.73;101662.66;5056473;28;20958;-72
2023/05/28 01:35:57;;;;;;;9.53;3.07;;;;;;;10.10;87.65;101662.41;5056497;28;20923;-72
2023/05/28 01:38:24;;;;;;;11.57;3.43;;;;;;;10.03;86.46;101659.16;5056148;28;20493;-74
2023/05/28 01:40:54;;;;;;;6.90;2.73;;;;;;;9.86;86.24;101652.09;5056677;28;20446;-73
2023/05/28 01:43:21;;;;;;;22.37;3.83;;;;;;;9.77;86.56;101648.31;5056683;28;20466;-73
2023/05/28 01:45:49;;;;;;;8.40;3.20;;;;;;;9.68;86.80;101651.81;5056630;28;20446;-73
2023/05/28 01:48:16;;;;;;;8.73;3.77;;;;;;;9.70;86.37;101647.78;5056543;28;20483;-73
2023/05/28 01:50:43;;;;;;;9.23;3.63;;;;;;;9.65;86.83;101647.78;5056516;28;20442;-73
2023/05/28 01:53:09;;;;;;;11.63;3.50;;;;;;;9.56;87.91;101644.78;5056192;28;21015;-73
2023/05/28 01:55:36;;;;;;;12.10;3.80;;;;;;;9.59;88.78;101643.41;5056401;28;20572;-73
2023/05/28 01:58:05;;;;;;;10.33;3.93;;;;;;;9.53;90.15;101639.09;5056298;28;20504;-73
2023/05/28 02:00:33;;;;;;;9.73;3.30;;;;;;;9.57;90.58;101643.69;5055987;28;20461;-73
2023/05/28 02:03:00;;;;;;;11.30;4.10;;;;;;;9.65;90.00;101642.38;5055981;28;20530;-73
2023/05/28 02:05:26;;;;;;;12.63;3.00;;;;;;;9.60;89.77;101636.94;5056150;28;20959;-73
2023/05/28 02:07:53;;;;;;;8.73;3.70;;;;;;;9.60;90.54;101645.03;5055671;28;20846;-73
2023/05/28 02:10:20;;;;;;;9.53;3.40;;;;;;;9.50;90.97;101642.31;5056101;28;20536;-73
2023/05/28 02:12:47;;;;;;;10.27;3.40;;;;;;;9.39;91.69;101638.00;5056090;28;20442;-73
2023/05/28 02:15:15;;;;;;;9.80;3.10;;;;;;;9.32;92.22;101633.63;5055852;28;20444;-73
2023/05/28 02:17:43;;;;;;;9.03;3.40;;;;;;;9.35;91.57;101638.50;5055921;28;20477;-73
2023/05/28 02:20:11;;;;;;;7.00;2.90;;;;;;;9.42;91.72;101642.84;5055995;28;20446;-73
2023/05/28 02:22:38;;;;;;;8.57;3.60;;;;;;;9.37;91.41;101645.53;5055612;28;20940;-73
2023/05/28 02:25:06;;;;;;;8.77;3.23;;;;;;;9.34;91.43;101642.31;5055903;28;20442;-73
2023/05/28 02:27:32;;;;;;;7.10;3.33;;;;;;;9.30;92.10;101643.91;5055766;28;20442;-73
2023/05/28 02:29:59;;;;;;;8.20;2.93;;;;;;;9.25;92.31;101638.50;5055845;28;20818;-73
2023/05/28 02:32:27;;;;;;;7.47;2.90;;;;;;;9.17;92.67;101641.72;5055733;28;20478;-73
2023/05/28 02:34:54;;;;;;;11.30;3.70;;;;;;;9.33;91.95;101646.06;5055331;28;20477;-73
2023/05/28 02:37:23;;;;;;;6.70;2.83;;;;;;;9.39;91.26;101643.41;5054606;28;20544;-73
2023/05/28 02:39:50;;;;;;;9.03;3.10;;;;;;;9.32;91.77;101646.34;5055632;28;20449;-73
2023/05/28 02:42:17;;;;;;;10.33;3.67;;;;;;;9.17;92.25;101639.00;5055443;28;20474;-73
2023/05/28 02:44:44;;;;;;;9.63;4.00;;;;;;;9.14;92.39;101636.81;5055245;28;20434;-73
2023/05/28 02:47:10;;;;;;;9.53;3.90;;;;;;;9.17;92.42;101641.72;5055481;28;20477;-73
2023/05/28 02:49:38;;;;;;;9.80;3.17;;;;;;;9.26;91.88;101645.53;5055380;28;20485;-73
2023/05/28 02:52:05;;;;;;;9.27;3.47;;;;;;;9.17;92.00;101640.91;5055080;28;20952;-73
2023/05/28 02:54:32;;;;;;;9.97;4.30;;;;;;;9.19;91.98;101639.53;5055320;28;20457;-73
2023/05/28 02:56:58;;;;;;;8.60;3.93;;;;;;;9.18;89.45;101645.22;5055249;28;20488;-74
2023/05/28 02:59:25;;;;;;;8.70;4.00;;;;;;;9.02;88.99;101644.34;5055171;28;20474;-71
2023/05/28 03:01:52;;;;;;;8.23;3.50;;;;;;;8.96;88.67;101640.81;5055129;28;20480;-72
2023/05/28 03:04:18;;;;;;;7.83;3.53;;;;;;;8.95;88.70;101643.78;5055169;28;20442;-72
2023/05/28 03:06:46;;;;;;;9.50;3.60;;;;;;;8.94;88.92;101640.28;5055105;28;20507;-72
2023/05/28 03:09:13;;;;;;;9.53;3.23;;;;;;;8.82;88.00;101640.47;5054625;28;21050;-72
2023/05/28 03:11:39;;;;;;;7.53;2.73;;;;;;;8.75;89.40;101639.09;5055005;28;20468;-72
2023/05/28 03:14:06;;;;;;;9.47;3.87;;;;;;;8.84;90.68;101635.63;5054943;28;20548;-72
2023/05/28 03:16:36;;;;;;;7.10;2.93;;;;;;;8.93;91.25;101635.13;5054868;28;20480;-71
2023/05/28 03:19:02;;;;;;;8.50;3.40;;;;;;;8.98;91.47;101643.25;5054760;28;20565;-72
2023/05/28 03:21:29;;;;;;;8.47;3.50;;;;;;;8.89;92.40;101628.63;5054902;28;20446;-72
2023/05/28 03:23:57;;;;;;;9.37;3.50;;;;;;;8.93;92.16;101624.31;5054746;28;20443;-72
2023/05/28 03:26:23;;;;;;;11.77;3.40;;;;;;;8.93;92.29;101635.94;5054723;28;20530;-72
2023/05/28 03:28:50;;;;;;;7.73;3.37;;;;;;;9.06;92.11;101642.75;5054645;28;20525;-73
2023/05/28 03:31:17;;;;;;;12.90;3.80;;;;;;;9.05;92.09;101633.00;5054635;28;20500;-72
2023/05/28 03:33:43;;;;;;;8.27;3.17;;;;;;;9.08;91.76;101637.91;5054586;28;20446;-72
2023/05/28 03:36:10;;;;;;;14.03;3.70;;;;;;;9.00;92.30;101641.91;5054544;28;20482;-72
2023/05/28 03:38:36;;;;;;;11.07;4.40;;;;;;;8.96;93.06;101637.31;5054415;28;20828;-72
2023/05/28 03:41:04;;;;;;;11.03;4.23;;;;;;;9.00;92.64;101633.00;5054420;28;20441;-72
2023/05/28 03:43:31;;;;;;;9.57;4.57;;;;;;;9.14;92.27;101623.31;5054475;28;20450;-72
2023/05/28 03:45:57;;;;;;;11.00;4.30;;;;;;;9.28;91.77;101620.91;5054346;28;20541;-72
2023/05/28 03:48:24;;;;;;;9.50;3.90;;;;;;;9.15;92.67;101622.22;5053216;28;20470;-72
2023/05/28 03:50:51;;;;;;;7.77;3.40;;;;;;;9.13;93.00;101624.41;5053914;28;20442;-72
2023/05/28 03:53:17;;;;;;;8.70;3.80;;;;;;;9.11;93.43;101626.53;5055604;28;20534;-72
2023/05/28 03:55:44;;;;;;;9.70;3.77;;;;;;;9.14;93.49;101626.00;5054096;28;20473;-75
2023/05/28 03:58:14;;;;;;;12.47;4.20;;;;;;;9.03;94.45;101627.88;5054065;28;20498;-70
2023/05/28 04:00:40;;;;;;;9.20;4.00;;;;;;;9.14;94.52;101633.31;5054119;28;20517;-74
2023/05/28 04:03:07;;;;;;;11.53;4.33;;;;;;;9.23;94.08;101637.13;5054028;28;20480;-73
2023/05/28 04:05:34;;;;;;;8.00;3.40;;;;;;;9.20;94.72;101634.94;5054149;28;20473;-72
2023/05/28 04:08:00;;;;;;;9.57;3.80;;;;;;;9.27;95.16;101636.31;5053521;28;20474;-75
2023/05/28 04:10:27;;;;;;;9.27;3.47;;;;;;;9.38;93.48;101634.44;5053700;28;20953;-73
2023/05/28 04:12:54;;;;;;;7.40;3.07;;;;;;;9.44;92.60;101624.47;5053685;28;20445;-73
2023/05/28 04:15:22;;;;;;;8.43;3.30;;;;;;;9.47;92.01;101632.03;5053853;28;20453;-73
2023/05/28 04:17:49;;;;;;;7.07;2.93;;;;;;;9.37;91.73;101637.44;5053740;28;20490;-73
2023/05/28 04:20:16;;;;;;;9.97;3.70;;;;;;;9.39;91.50;101630.69;5053737;28;20446;-73
2023/05/28 04:22:42;;;;;;;12.07;3.33;;;;;;;9.42;92.47;101632.84;5053466;28;20650;-73
2023/05/28 04:25:09;;;;;;;10.60;4.30;;;;;;;9.54;91.01;101629.91;5053425;28;20442;-74
2023/05/28 04:27:36;;;;;;;8.00;4.00;;;;;;;9.59;91.97;101638.00;5053317;28;20892;-73
2023/05/28 04:30:03;;;;;;;8.70;3.77;;;;;;;9.66;93.47;101638.56;5053280;28;20450;-73
2023/05/28 04:32:31;;;;;;;11.97;3.50;;;;;;;9.71;94.67;101629.66;5053371;28;20446;-71
2023/05/28 04:34:57;;;;;;;9.07;3.40;;;;;;;9.88;94.53;101626.69;5053202;28;20485;-71
2023/05/28 04:37:24;;;;;;;9.50;3.80;;;;;;;10.10;93.39;101636.16;5053334;28;20581;-71
2023/05/28 04:39:51;;;;;;;9.97;4.40;;;;;;;10.25;92.90;101634.53;5053486;28;20840;-73
2023/05/28 04:42:19;;;;;;;9.30;3.90;;;;;;;10.28;93.46;101637.53;5053490;28;20438;-73
2023/05/28 04:44:45;;;;;;;9.30;3.80;;;;;;;10.35;93.70;101635.31;5053370;28;20446;-75
2023/05/28 04:47:12;;;;;;;9.00;4.00;;;;;;;10.39;94.78;101629.38;5053287;28;20438;-67
2023/05/28 04:49:41;;;;;;;13.07;4.80;;;;;;;10.40;94.97;101637.22;5052909;28;20890;-68
2023/05/28 04:52:08;;;;;;;8.13;3.67;;;;;;;10.63;94.74;101635.03;5052831;28;20890;-67
2023/05/28 04:54:35;;;;;;;9.50;4.20;;;;;;;10.77;94.35;101636.88;5053287;28;20454;-68
2023/05/28 04:57:02;;;;;;;9.60;3.97;;;;;;;10.95;94.43;101637.34;5053108;28;20890;-68
2023/05/28 04:59:29;;;;;;;12.50;4.40;;;;;;;11.05;94.04;101640.81;5052595;28;21045;-68
2023/05/28 05:01:56;;;;;;;7.33;3.23;;;;;;;11.18;93.83;101635.88;5053163;28;20442;-68
2023/05/28 05:04:22;;;;;;;10.57;4.60;;;;;;;11.28;94.36;101638.53;5053189;28;20485;-67
2023/05/28 05:06:50;;;;;;;10.83;3.60;;;;;;;11.39;94.55;101637.41;5053093;28;20446;-68
2023/05/28 05:09:18;;;;;;;9.70;4.00;;;;;;;11.49;95.41;101640.03;5052697;28;20478;-68
2023/05/28 05:11:46;;;;;;;7.80;3.37;;;;;;;11.60;96.21;101627.22;5053072;28;20442;-67
2023/05/28 05:14:12;;;;;;;12.20;4.80;;;;;;;11.72;97.30;101635.81;5053020;28;20438;-68
2023/05/28 05:16:40;;;;;;;15.47;5.00;;;;;;;11.84;98.14;101630.88;5052968;28;20478;-68
2023/05/28 05:19:07;;;;;;;15.67;4.40;;;;;;;11.99;98.79;101626.41;5052870;28;20470;-68
2023/05/28 05:21:33;;;;;;;8.63;3.73;;;;;;;12.10;99.16;101620.59;5052958;28;20450;-68
2023/05/28 05:24:01;;;;;;;10.57;4.13;;;;;;;12.24;99.73;101626.16;5052905;28;20525;-68
2023/05/28 05:26:28;;;;;;;13.83;6.17;;;;;;;12.38;100.00;101618.16;5052589;28;20820;-68
2023/05/28 05:28:54;;;;;;;14.20;5.53;;;;;;;12.50;100.00;101617.78;5052540;28;21002;-68
2023/05/28 05:31:21;;;;;;;13.73;6.20;;;;;;;12.66;100.00;101621.94;5052842;28;20454;-68
2023/05/28 05:33:48;;;;;;;20.63;7.30;;;;;;;12.83;100.00;101632.34;5052467;28;20446;-68
2023/05/28 05:36:14;;;;;;;23.10;7.00;;;;;;;12.96;99.41;101619.94;5052818;28;20453;-68
2023/05/28 05:38:41;;;;;;;11.70;5.33;;;;;;;13.08;97.30;101612.19;5053007;28;20469;-68
2023/05/28 05:41:09;;;;;;;12.90;4.80;;;;;;;13.20;95.11;101612.56;5052742;28;20438;-68
2023/05/28 05:43:36;;;;;;;18.20;3.90;;;;;;;13.30;93.45;101617.88;5052807;28;20818;-67
2023/05/28 05:46:02;;;;;;;15.60;4.50;;;;;;;13.47;91.33;101624.72;5052492;28;20542;-68
2023/05/28 05:48:29;;;;;;;10.77;3.90;;;;;;;13.59;89.51;101628.63;5052632;28;20462;-68
2023/05/28 05:50:58;;;;;;;10.40;3.87;;;;;;;13.75;87.94;101626.47;5052754;28;20438;-67
2023/05/28 05:53:25;;;;;;;12.63;3.77;;;;;;;13.93;86.14;101632.97;5052783;28;20442;-67
2023/05/28 05:55:51;;;;;;;7.80;3.07;;;;;;;14.06;84.28;101631.41;5052412;28;20957;-67
2023/05/28 05:58:19;;;;;;;8.30;3.10;;;;;;;14.23;82.99;101636.31;5052277;28;21013;-67
2023/05/28 06:00:47;;;;;;;11.03;4.10;;;;;;;14.38;81.89;101634.09;5052696;28;20449;-67
2023/05/28 06:03:14;;;;;;;9.20;3.43;;;;;;;14.56;80.96;101637.88;5052765;28;20838;-68
2023/05/28 06:05:40;;;;;;;10.27;4.20;;;;;;;14.71;79.30;101636.00;5052349;28;20442;-68
2023/05/28 06:08:08;;;;;;;7.33;2.60;;;;;;;14.84;78.34;101644.16;5052346;28;20847;-68
2023/05/28 06:10:35;;;;;;;10.87;3.30;;;;;;;14.98;77.10;101635.97;5052693;28;20958;-68
2023/05/28 06:13:01;;;;;;;12.70;3.60;;;;;;;15.09;76.00;101631.91;5056254;28;20445;-68
2023/05/28 06:15:31;;;;;;;7.37;3.00;;;;;;;15.24;75.01;101633.50;5055919;28;20936;-68
2023/05/28 06:17:58;;;;;;;10.93;3.97;;;;;;;15.38;75.05;101636.19;5055953;28;20485;-68
2023/05/28 06:20:24;;;;;;;8.27;3.60;;;;;;;15.51;74.74;101638.09;5056187;28;20825;-68
2023/05/28 06:22:51;;;;;;;7.80;2.53;;;;;;;15.62;74.81;101644.09;5055968;28;20470;-68
2023/05/28 06:25:18;;;;;;;9.00;3.70;;;;;;;15.74;73.54;101636.22;5055755;28;20478;-68
2023/05/28 06:27:45;;;;;;;12.60;3.30;;;;;;;15.83;71.91;101634.34;5055860;28;20523;-68
2023/05/28 06:30:12;;;;;;;35.90;4.80;;;;;;;15.98;69.94;101635.06;5055894;28;20446;-68
2023/05/28 06:32:40;;;;;;;13.80;4.07;;;;;;;16.10;70.11;101638.84;5055477;28;20450;-68
2023/05/28 06:35:07;;;;;;;18.63;3.57;;;;;;;16.23;69.42;101631.69;5055714;28;20450;-68
2023/05/28 06:37:34;;;;;;;9.93;3.40;;;;;;;16.33;68.73;101636.88;5055629;28;20485;-72
2023/05/28 06:40:01;;;;;;;7.67;2.70;;;;;;;16.46;67.84;101639.84;5055218;28;20456;-70
2023/05/28 06:42:27;;;;;;;7.50;2.77;;;;;;;16.55;63.50;101648.91;5055380;28;21010;-72
2023/05/28 06:44:54;;;;;;;8.00;2.57;;;;;;;16.63;63.56;101639.94;5055596;28;20442;-72
2023/05/28 06:47:21;;;;;;;9.00;3.13;;;;;;;16.72;63.99;101637.22;5055512;28;20439;-71
2023/05/28 06:49:49;;;;;;;8.97;2.70;;;;;;;16.82;63.18;101642.44;5055189;28;20478;-72
2023/05/28 06:52:16;;;;;;;8.30;2.53;;;;;;;16.94;62.14;101639.09;5055114;28;20939;-71
2023/05/28 06:54:42;;;;;;;7.33;1.70;;;;;;;17.01;62.29;101634.78;5055426;28;20521;-72
2023/05/28 06:57:09;;;;;;;7.07;2.40;;;;;;;17.12;62.59;101643.50;5055307;28;20564;-71
2023/05/28 06:59:35;;;;;;;5.30;1.83;;;;;;;17.20;60.64;101634.47;5055276;28;20494;-72
2023/05/28 07:02:02;;;;;;;6.63;1.93;;;;;;;17.30;58.93;101647.06;5055257;28;20445;-72
2023/05/28 07:04:29;;;;;;;6.67;1.70;;;;;;;17.36;57.54;101638.38;5055463;28;20447;-72
2023/05/28 07:06:57;;;;;;;7.60;2.23;;;;;;;17.45;56.90;101643.06;5054889;28;20939;-72
2023/05/28 07:09:23;;;;;;;6.93;2.07;;;;;;;17.51;54.99;101648.03;5054704;28;20474;-72
2023/05/28 07:11:50;;;;;;;6.10;1.73;;;;;;;17.54;52.13;101649.34;5055060;28;20462;-72
2023/05/28 07:14:17;;;;;;;9.53;1.90;;;;;;;17.59;50.50;101652.72;5054896;28;20924;-72
2023/05/28 07:16:43;;;;;;;6.30;1.40;;;;;;;17.67;48.04;101648.38;5054797;28;20485;-72
2023/05/28 07:19:10;;;;;;;9.03;2.00;;;;;;;17.75;47.97;101647.59;5054744;28;20541;-72
2023/05/28 07:21:37;;;;;;;8.23;1.87;;;;;;;17.78;48.15;101646.13;5054278;28;20442;-72
2023/05/28 07:24:06;;;;;;;5.90;1.77;;;;;;;17.88;49.94;101643.88;5054465;28;20450;-72
2023/05/28 07:26:32;;;;;;;4.90;1.63;;;;;;;17.90;46.71;101643.56;5054818;28;20443;-72
2023/05/28 07:28:59;;;;;;;5.87;1.60;;;;;;;18.06;47.23;101647.41;5054611;28;20455;-72
2023/05/28 07:31:26;;;;;;;5.80;1.93;;;;;;;18.29;46.49;101650.75;5054639;28;20445;-72
2023/05/28 07:33:52;;;;;;;6.73;2.07;;;;;;;18.45;46.89;101647.44;5054245;28;20954;-72
2023/05/28 07:36:19;;;;;;;8.53;2.17;;;;;;;18.55;47.56;101652.56;5054586;28;20888;-72
2023/05/28 07:38:45;;;;;;;5.37;1.30;;;;;;;18.64;46.83;101648.69;5054354;28;20565;-72
2023/05/28 07:41:13;;;;;;;8.30;1.33;;;;;;;18.65;47.39;101647.53;5054594;28;20449;-71
2023/05/28 07:43:40;;;;;;;6.00;1.70;;;;;;;18.66;47.07;101643.66;5054214;28;20448;-72
2023/05/28 07:46:07;;;;;;;9.00;1.77;;;;;;;18.73;45.58;101637.69;5054411;28;20511;-72
2023/05/28 07:48:33;;;;;;;5.83;1.97;;;;;;;18.72;44.96;101632.50;5054297;28;20545;-72
2023/05/28 07:51:00;;;;;;;6.50;2.00;;;;;;;18.79;45.54;101639.09;5054117;28;20444;-72
2023/05/28 07:53:26;;;;;;;6.03;1.33;;;;;;;18.89;47.30;101638.72;5054274;28;20442;-72
2023/05/28 07:55:55;;;;;;;5.50;1.00;;;;;;;18.98;46.49;101638.66;5054261;28;20470;-72
2023/05/28 07:58:23;;;;;;;7.50;1.57;;;;;;;18.95;43.66;101641.25;5053979;28;20504;-72
2023/05/28 08:00:49;;;;;;;5.70;1.20;;;;;;;19.01;43.25;101638.00;5053971;28;20488;-71
2023/05/28 08:03:16;;;;;;;6.10;1.50;;;;;;;19.06;44.67;101632.31;5053864;28;20894;-72
2023/05/28 08:05:43;;;;;;;7.13;1.70;;;;;;;19.13;44.07;101634.56;5054387;28;20450;-72
2023/05/28 08:08:09;;;;;;;5.00;1.20;;;;;;;19.23;43.57;101636.91;5053762;28;20509;-72
2023/05/28 08:10:36;;;;;;;6.50;1.40;;;;;;;19.19;41.53;101626.91;5054076;28;20442;-71
2023/05/28 08:13:02;;;;;;;6.53;1.77;;;;;;;19.25;41.71;101625.56;5053607;28;20449;-72
2023/05/28 08:15:30;;;;;;;5.17;1.27;;;;;;;19.36;44.01;101627.59;5053864;28;20496;-72
2023/05/28 08:17:57;;;;;;;5.53;1.30;;;;;;;19.33;43.71;101631.00;5053774;28;20510;-72
2023/05/28 08:20:24;;;;;;;4.43;0.87;;;;;;;19.37;42.35;101626.44;5053668;28;20940;-69
2023/05/28 08:22:50;;;;;;;6.77;1.43;;;;;;;19.46;41.03;101637.38;5053356;28;20533;-71
2023/05/28 08:25:17;;;;;;;5.97;1.20;;;;;;;19.55;41.70;101627.13;5053269;28;20936;-72
2023/05/28 08:27:43;;;;;;;4.67;1.10;;;;;;;19.60;40.23;101626.94;5053414;28;20464;-71
2023/05/28 08:30:11;;;;;;;4.90;1.23;;;;;;;19.66;41.69;101619.31;5053605;28;20876;-71
2023/05/28 08:32:39;;;;;;;4.93;1.27;;;;;;;19.69;41.40;101618.59;5053293;28;20903;-71
2023/05/28 08:35:06;;;;;;;6.00;1.33;;;;;;;19.61;40.15;101625.81;5052628;28;21047;-73
2023/05/28 08:37:33;;;;;;;25.90;1.70;;;;;;;19.62;40.66;101619.16;5053349;28;20486;-73
2023/05/28 08:39:59;;;;;;;5.77;1.60;;;;;;;19.74;40.94;101617.59;5053003;28;20532;-72
2023/05/28 08:42:27;;;;;;;6.33;1.27;;;;;;;19.86;40.26;101620.41;5053106;28;20935;-71
2023/05/28 08:44:54;;;;;;;7.93;1.70;;;;;;;19.93;42.37;101623.41;5053028;28;20448;-71
2023/05/28 08:47:22;;;;;;;8.13;1.77;;;;;;;19.96;41.23;101617.22;5053306;28;20464;-72
2023/05/28 08:49:53;;;;;;;7.10;1.47;;;;;;;19.92;38.99;101621.78;5053379;28;20450;-72
2023/05/28 08:52:21;;;;;;;4.80;1.30;;;;;;;19.93;39.44;101611.59;5053020;28;20931;-70
2023/05/28 08:54:48;;;;;;;6.73;1.30;;;;;;;19.93;40.81;101612.41;5053296;28;20481;-70
2023/05/28 08:57:16;;;;;;;6.83;2.00;;;;;;;19.94;41.05;101607.72;5053189;28;20522;-70
2023/05/28 08:59:45;;;;;;;6.70;1.10;;;;;;;20.02;40.56;101613.13;5053153;28;20524;-70
2023/05/28 09:02:12;;;;;;;7.03;1.70;;;;;;;20.07;39.93;101610.16;5052844;28;20485;-70
2023/05/28 09:04:40;;;;;;;6.40;1.73;;;;;;;20.30;39.63;101605.03;5053072;28;20529;-71
2023/05/28 09:07:08;;;;;;;6.40;1.17;;;;;;;20.50;38.69;101599.81;5053185;28;20456;-70
2023/05/28 09:09:35;;;;;;;5.07;1.20;;;;;;;20.56;37.73;101598.44;5052690;28;20473;-71
2023/05/28 09:12:05;;;;;;;13.43;1.87;;;;;;;20.58;39.31;101598.88;5052735;28;20533;-70
2023/05/28 09:14:37;;;;;;;5.73;1.37;;;;;;;20.63;40.47;101601.41;5053051;28;20814;-70
2023/05/28 09:17:04;;;;;;;5.30;1.00;;;;;;;20.65;39.62;101593.59;5052844;28;20464;-70
2023/05/28 09:19:31;;;;;;;5.63;1.50;;;;;;;20.75;40.85;101595.09;5053052;28;20860;-70
2023/05/28 09:22:01;;;;;;;4.80;0.90;;;;;;;20.82;38.94;101604.38;5053196;28;20442;-70
2023/05/28 09:24:30;;;;;;;5.30;1.00;;;;;;;20.92;39.38;101595.63;5052692;28;20441;-70
2023/05/28 09:26:57;;;;;;;5.63;1.50;;;;;;;21.06;39.13;101592.50;5053277;28;20533;-70
2023/05/28 09:29:24;;;;;;;4.57;1.07;;;;;;;21.18;37.24;101588.94;5053906;28;20500;-70
2023/05/28 09:31:56;;;;;;;6.60;1.90;;;;;;;21.12;36.10;101590.34;5052720;28;20438;-70
2023/05/28 09:34:27;;;;;;;6.43;1.47;;;;;;;21.04;37.43;101583.00;5052961;28;20427;-72
2023/05/28 09:36:54;;;;;;;4.30;0.93;;;;;;;20.95;38.49;101585.91;5052944;28;20811;-69
2023/05/28 09:39:25;;;;;;;5.70;1.50;;;;;;;20.99;38.61;101577.75;5052686;28;20482;-70
2023/05/28 09:42:03;;;;;;;6.93;1.27;;;;;;;21.05;38.29;101571.63;5052999;28;20429;-70
2023/05/28 09:44:31;;;;;;;5.90;1.40;;;;;;;21.24;38.87;101579.25;5052868;28;20418;-70
2023/05/28 09:46:57;;;;;;;6.80;1.30;;;;;;;21.33;38.38;101581.91;5055361;28;20457;-71
2023/05/28 09:49:24;;;;;;;6.27;1.50;;;;;;;21.34;37.33;101581.56;5056508;28;20530;-71
2023/05/28 09:51:53;;;;;;;5.17;1.50;;;;;;;21.33;37.26;101570.88;5056626;28;20461;-71
2023/05/28 09:54:21;;;;;;;5.23;1.60;;;;;;;21.35;37.38;101574.09;5056621;28;20442;-71
2023/05/28 09:56:52;;;;;;;4.90;0.97;;;;;;;21.50;37.70;101578.88;5056531;28;20442;-70
2023/05/28 09:59:25;;;;;;;5.13;1.20;;;;;;;21.61;37.82;101568.16;5056380;28;20516;-71
2023/05/28 10:01:56;;;;;;;4.93;1.30;;;;;;;21.67;36.28;101575.78;5056136;28;20442;-71
2023/05/28 10:04:33;;;;;;;6.20;0.90;;;;;;;21.76;36.43;101575.63;5056583;28;20426;-71
2023/05/28 10:07:00;;;;;;;5.03;1.53;;;;;;;21.72;34.42;101566.47;5056411;28;20434;-71
2023/05/28 10:09:28;;;;;;;12.60;1.50;;;;;;;21.82;33.41;101568.69;5055831;28;20466;-71
2023/05/28 10:12:03;;;;;;;6.17;1.13;;;;;;;21.77;35.05;101566.19;5056343;28;20442;-71
2023/05/28 10:14:32;;;;;;;7.57;1.50;;;;;;;21.93;35.61;101557.97;5056271;28;20430;-71
2023/05/28 10:16:59;;;;;;;4.30;0.80;;;;;;;22.02;34.69;101569.63;5056169;28;20450;-71
2023/05/28 10:19:28;;;;;;;17.77;1.60;;;;;;;22.17;34.85;101557.00;5056041;28;20513;-71
2023/05/28 10:21:56;;;;;;;5.07;1.13;;;;;;;22.15;35.13;101562.09;5056620;28;20452;-71
2023/05/28 10:24:23;;;;;;;6.53;1.43;;;;;;;22.09;34.27;101560.72;5056270;28;20986;-71
2023/05/28 10:26:51;;;;;;;5.73;1.77;;;;;;;22.31;35.84;101564.84;5055827;28;20453;-71
2023/05/28 10:29:18;;;;;;;6.00;1.70;;;;;;;22.41;34.85;101562.34;5055806;28;20466;-71
2023/05/28 10:31:57;;;;;;;5.20;1.23;;;;;;;22.52;35.31;101562.59;5055836;28;20442;-71
2023/05/28 10:34:31;;;;;;;9.83;3.10;;;;;;;22.55;34.26;101566.63;5055476;28;20809;-71
2023/05/28 10:36:57;;;;;;;9.33;2.97;;;;;;;22.66;35.33;101567.66;5057406;28;20450;-71
2023/05/28 10:39:24;;;;;;;6.10;1.87;;;;;;;22.74;33.89;101568.63;5055364;28;21009;-71
2023/05/28 10:41:51;;;;;;;5.33;1.50;;;;;;;22.78;33.07;101563.97;5055697;28;20473;-71
2023/05/28 10:44:18;;;;;;;4.77;1.03;;;;;;;22.86;32.72;101566.53;5055760;28;20869;-71
2023/05/28 10:46:46;;;;;;;5.90;1.57;;;;;;;23.01;34.20;101567.69;5055188;28;20454;-71
2023/05/28 10:49:14;;;;;;;7.27;1.23;;;;;;;23.20;33.52;101566.91;5055194;28;20881;-73
2023/05/28 10:51:52;;;;;;;5.33;1.17;;;;;;;23.39;33.59;101564.16;5055637;28;20442;-71
2023/05/28 10:54:24;;;;;;;9.40;3.00;;;;;;;23.48;31.70;101560.34;5055560;28;20435;-71
2023/05/28 10:57:10;;;;;;;8.00;2.60;;;;;;;23.33;31.63;101557.31;5054693;28;20957;-71
2023/05/28 10:59:43;;;;;;;6.97;1.30;;;;;;;23.40;31.34;101562.16;5055321;28;20486;-71
2023/05/28 11:02:12;;;;;;;4.90;0.97;;;;;;;23.64;33.13;101553.59;5055105;28;20521;-70
2023/05/28 11:04:40;;;;;;;5.43;1.40;;;;;;;23.87;33.36;101559.16;5055007;28;20871;-71
2023/05/28 11:07:06;;;;;;;4.67;1.20;;;;;;;24.13;32.42;101572.25;5055225;28;20451;-71
2023/05/28 11:09:33;;;;;;;7.43;1.20;;;;;;;24.34;32.04;101571.81;5054794;28;20474;-71
2023/05/28 11:12:01;;;;;;;6.87;1.60;;;;;;;24.50;32.59;101570.91;5055144;28;20441;-71
2023/05/28 11:14:31;;;;;;;5.83;1.60;;;;;;;24.74;32.26;101558.59;5055123;28;20443;-72
2023/05/28 11:16:57;;;;;;;5.77;1.37;;;;;;;25.08;31.72;101568.59;5054755;28;20442;-70
2023/05/28 11:19:25;;;;;;;4.80;1.10;;;;;;;25.71;30.91;101574.47;5054531;28;20482;-70
2023/05/28 11:21:52;;;;;;;5.30;1.50;;;;;;;25.96;27.94;101558.09;5054877;28;20438;-70
2023/05/28 11:24:19;;;;;;;6.43;2.30;;;;;;;26.30;28.62;101561.56;5054595;28;20974;-69